METAR Data
IDs: Format: Raw Decoded Include TAF

Data at: 0221 UTC 24 Jun 2021

METAR for:KSGH (Springfield Muni, OH, US)
Text:KSGH 240156Z AUTO 16005KT 10SM FEW120 19/12 A3017 RMK AO2 SLP216 T01940122
Temperature: 19.4°C ( 67°F)
Dewpoint: 12.2°C ( 54°F) [RH = 63%]
Pressure (altimeter):30.17 inches Hg (1021.8 mb) [Sea level pressure: 1021.6 mb]
Winds:from the SSE (160 degrees) at 6 MPH (5 knots; 2.6 m/s)
Visibility:10 or more sm (16+ km)
Ceiling:at least 12,000 feet AGL
Clouds: few clouds at 12000 feet AGL
QC Flag:automated observation with no human augmentation